CCN4 weather

Conn Field
Conn, Ontario, Canada

Public forecast

Using degrees Celsius for public forecast. Weather courtesy of forecast.io.

METAR (pilot weather report)

Closest report is CFB Borden, 28.6 nm (52.9 km) ENE. Retrieved 2019/09/19 05:00 UTC (39 minutes ago):

CYBN 190500Z AUTO 16004KT 9SM CLR 14/12 A3025 RMK SLP243

TAF (pilot weather forecast)

Forecast is more than 12 hours old.

Closest forecast is CFB Borden, 28.6 nm (52.9 km) ENE. Retrieved 2019/09/18 00:33 UTC (1 day ago):

TAF TAF CYBN 182330Z 1900/1912 16008KT P6SM SKC BECMG 1900/1902 VRB03KT SCT150 BKN250 RMK FCST BASED ON AUTO OBS. NXT FCST BY 190600Z